SAVV/VDM METAR and TAF weather

Enter ICAO airport designator
Station Type Date Time Source
SAVV METAR 2019/02/11 09:40 UTC NOAA

SAVV 110940Z 18011KT 9999 BKN025 FEW030TCU 11/06 Q1016 RERA


Station Type Date Time Source
SAVV Decoded METAR 2019/02/11 09:40 UTC NOAA

Viedma Aerodrome, Argentina (SAVV) 40-51S 063-01W 7M
Feb 11, 2019 - 04:40 AM EST / 2019.02.11 0940 UTC
Wind: from the S (180 degrees) at 13 MPH (11 KT):0
Visibility: greater than 7 mile(s):0
Sky conditions: mostly cloudy
Weather: Towering cumulus clouds observed
Temperature: 51 F (11 C)
Dew Point: 42 F (6 C)
Relative Humidity: 71%
Pressure (altimeter): 30.00 in. Hg (1016 hPa)
ob: SAVV 110940Z 18011KT 9999 BKN025 FEW030TCU 11/06 Q1016 RERA
cycle: 9

Station Type Date Time Source
SAVV TAF 2019/02/11 06:27 UTC NOAA

TAF TAF SAVV 110500Z 1106/1206 32005KT 9999 FEW020 BKN100 TX18/1118Z TN10/1110Z
BECMG 1112/1114 21018KT FEW030 SCT100
TEMPO 1114/1119 7000 RA BKN015 BKN025
BECMG 1121/1123 21010KT SCT020


Example: see airport list